sensor_id;sensor_type;location;lat;lon;timestamp;temperature;humidity
14119;DHT22;7138;49.246;9.100;2022-08-01T00:00:37;21.60;95.40
14119;DHT22;7138;49.246;9.100;2022-08-01T00:03:03;21.70;95.40
14119;DHT22;7138;49.246;9.100;2022-08-01T00:05:30;21.70;95.70
14119;DHT22;7138;49.246;9.100;2022-08-01T00:07:57;21.60;95.90
14119;DHT22;7138;49.246;9.100;2022-08-01T00:10:23;21.60;95.80
14119;DHT22;7138;49.246;9.100;2022-08-01T00:12:49;21.60;95.80
14119;DHT22;7138;49.246;9.100;2022-08-01T00:15:16;21.60;95.90
14119;DHT22;7138;49.246;9.100;2022-08-01T00:17:43;21.50;96.00
14119;DHT22;7138;49.246;9.100;2022-08-01T00:20:11;21.50;96.30
14119;DHT22;7138;49.246;9.100;2022-08-01T00:22:39;21.40;96.40
14119;DHT22;7138;49.246;9.100;2022-08-01T00:25:07;21.40;96.50
14119;DHT22;7138;49.246;9.100;2022-08-01T00:27:33;21.30;96.60
14119;DHT22;7138;49.246;9.100;2022-08-01T00:29:59;21.20;96.90
14119;DHT22;7138;49.246;9.100;2022-08-01T00:32:25;21.20;97.00
14119;DHT22;7138;49.246;9.100;2022-08-01T00:34:51;21.20;97.30
14119;DHT22;7138;49.246;9.100;2022-08-01T00:37:17;21.10;97.40
14119;DHT22;7138;49.246;9.100;2022-08-01T00:39:43;21.00;97.70
14119;DHT22;7138;49.246;9.100;2022-08-01T00:42:11;21.00;97.90
14119;DHT22;7138;49.246;9.100;2022-08-01T00:44:38;20.90;98.00
14119;DHT22;7138;49.246;9.100;2022-08-01T00:47:05;20.80;98.10
14119;DHT22;7138;49.246;9.100;2022-08-01T00:49:32;20.70;98.40
14119;DHT22;7138;49.246;9.100;2022-08-01T00:51:58;20.70;98.60
14119;DHT22;7138;49.246;9.100;2022-08-01T00:54:26;20.60;99.00
14119;DHT22;7138;49.246;9.100;2022-08-01T00:56:53;20.50;99.20
14119;DHT22;7138;49.246;9.100;2022-08-01T00:59:22;20.50;99.50
14119;DHT22;7138;49.246;9.100;2022-08-01T01:01:48;20.40;99.80
14119;DHT22;7138;49.246;9.100;2022-08-01T01:04:15;20.30;99.90
14119;DHT22;7138;49.246;9.100;2022-08-01T01:06:46;20.30;99.90
14119;DHT22;7138;49.246;9.100;2022-08-01T01:09:32;20.20;99.90
14119;DHT22;7138;49.246;9.100;2022-08-01T01:12:13;20.20;99.90
14119;DHT22;7138;49.246;9.100;2022-08-01T01:14:54;20.10;99.90
14119;DHT22;7138;49.246;9.100;2022-08-01T01:17:32;20.10;99.90
14119;DHT22;7138;49.246;9.100;2022-08-01T01:20:03;20.10;99.90
14119;DHT22;7138;49.246;9.100;2022-08-01T01:22:53;20.00;99.90
14119;DHT22;7138;49.246;9.100;2022-08-01T01:25:51;19.90;99.90
14119;DHT22;7138;49.246;9.100;2022-08-01T01:28:32;19.90;99.90
14119;DHT22;7138;49.246;9.100;2022-08-01T01:31:02;19.80;99.90
14119;DHT22;7138;49.246;9.100;2022-08-01T01:33:34;19.80;99.90
14119;DHT22;7138;49.246;9.100;2022-08-01T01:36:05;19.70;99.90
14119;DHT22;7138;49.246;9.100;2022-08-01T01:38:37;19.70;99.90
14119;DHT22;7138;49.246;9.100;2022-08-01T01:41:08;19.60;99.90
14119;DHT22;7138;49.246;9.100;2022-08-01T01:43:37;19.60;99.90
14119;DHT22;7138;49.246;9.100;2022-08-01T01:46:07;19.50;99.90
14119;DHT22;7138;49.246;9.100;2022-08-01T01:48:35;19.50;99.90
14119;DHT22;7138;49.246;9.100;2022-08-01T01:51:03;19.40;99.90
14119;DHT22;7138;49.246;9.100;2022-08-01T01:53:33;19.40;99.90
14119;DHT22;7138;49.246;9.100;2022-08-01T01:56:02;19.40;99.90
14119;DHT22;7138;49.246;9.100;2022-08-01T01:58:29;19.40;99.90
14119;DHT22;7138;49.246;9.100;2022-08-01T02:00:59;19.40;99.90
14119;DHT22;7138;49.246;9.100;2022-08-01T02:03:28;19.40;99.90
14119;DHT22;7138;49.246;9.100;2022-08-01T02:05:55;19.40;99.90
14119;DHT22;7138;49.246;9.100;2022-08-01T02:08:23;19.40;99.90
14119;DHT22;7138;49.246;9.100;2022-08-01T02:10:51;19.40;99.90
14119;DHT22;7138;49.246;9.100;2022-08-01T02:13:38;19.30;99.90
14119;DHT22;7138;49.246;9.100;2022-08-01T02:16:05;19.40;99.90
14119;DHT22;7138;49.246;9.100;2022-08-01T02:18:35;19.40;99.90
14119;DHT22;7138;49.246;9.100;2022-08-01T02:21:04;19.40;99.90
14119;DHT22;7138;49.246;9.100;2022-08-01T02:23:36;19.30;99.90
14119;DHT22;7138;49.246;9.100;2022-08-01T02:26:06;19.30;99.90
14119;DHT22;7138;49.246;9.100;2022-08-01T02:28:40;19.30;99.90
14119;DHT22;7138;49.246;9.100;2022-08-01T02:31:13;19.30;99.90
14119;DHT22;7138;49.246;9.100;2022-08-01T02:33:46;19.30;99.90
14119;DHT22;7138;49.246;9.100;2022-08-01T02:36:19;19.30;99.90
14119;DHT22;7138;49.246;9.100;2022-08-01T02:38:49;19.20;99.90
14119;DHT22;7138;49.246;9.100;2022-08-01T02:41:19;19.20;99.90
14119;DHT22;7138;49.246;9.100;2022-08-01T02:43:49;19.20;99.90
14119;DHT22;7138;49.246;9.100;2022-08-01T02:46:21;19.20;99.90
14119;DHT22;7138;49.246;9.100;2022-08-01T02:48:53;19.20;99.90
14119;DHT22;7138;49.246;9.100;2022-08-01T02:51:24;19.20;99.90
14119;DHT22;7138;49.246;9.100;2022-08-01T02:53:53;19.20;99.90
14119;DHT22;7138;49.246;9.100;2022-08-01T02:56:22;19.20;99.90
14119;DHT22;7138;49.246;9.100;2022-08-01T02:59:00;19.10;99.90
14119;DHT22;7138;49.246;9.100;2022-08-01T03:01:29;19.10;99.90
14119;DHT22;7138;49.246;9.100;2022-08-01T03:03:58;19.10;99.90
14119;DHT22;7138;49.246;9.100;2022-08-01T03:06:25;19.10;99.90
14119;DHT22;7138;49.246;9.100;2022-08-01T03:08:52;19.10;99.90
14119;DHT22;7138;49.246;9.100;2022-08-01T03:11:21;19.00;99.90
14119;DHT22;7138;49.246;9.100;2022-08-01T03:13:50;18.90;99.90
14119;DHT22;7138;49.246;9.100;2022-08-01T03:16:20;18.90;99.90
14119;DHT22;7138;49.246;9.100;2022-08-01T03:18:48;18.80;99.90
14119;DHT22;7138;49.246;9.100;2022-08-01T03:21:19;18.80;99.90
14119;DHT22;7138;49.246;9.100;2022-08-01T03:23:48;18.70;99.90
14119;DHT22;7138;49.246;9.100;2022-08-01T03:26:16;18.70;99.90
14119;DHT22;7138;49.246;9.100;2022-08-01T03:28:44;18.70;99.90
14119;DHT22;7138;49.246;9.100;2022-08-01T03:31:14;18.60;99.90
14119;DHT22;7138;49.246;9.100;2022-08-01T03:33:40;18.60;99.90
14119;DHT22;7138;49.246;9.100;2022-08-01T03:36:09;18.50;99.90
14119;DHT22;7138;49.246;9.100;2022-08-01T03:38:40;18.50;99.90
14119;DHT22;7138;49.246;9.100;2022-08-01T03:41:13;18.50;99.90
14119;DHT22;7138;49.246;9.100;2022-08-01T03:43:48;18.50;99.90
14119;DHT22;7138;49.246;9.100;2022-08-01T03:46:21;18.40;99.90
14119;DHT22;7138;49.246;9.100;2022-08-01T03:48:55;18.40;99.90
14119;DHT22;7138;49.246;9.100;2022-08-01T03:51:26;18.40;99.90
14119;DHT22;7138;49.246;9.100;2022-08-01T03:53:57;18.40;99.90
14119;DHT22;7138;49.246;9.100;2022-08-01T03:56:27;18.30;99.90
14119;DHT22;7138;49.246;9.100;2022-08-01T03:58:58;18.30;99.90
14119;DHT22;7138;49.246;9.100;2022-08-01T04:01:24;18.30;99.90
14119;DHT22;7138;49.246;9.100;2022-08-01T04:03:52;18.30;99.90
14119;DHT22;7138;49.246;9.100;2022-08-01T04:06:18;18.30;99.90
14119;DHT22;7138;49.246;9.100;2022-08-01T04:08:44;18.40;99.90
14119;DHT22;7138;49.246;9.100;2022-08-01T04:11:22;18.40;99.90
14119;DHT22;7138;49.246;9.100;2022-08-01T04:13:49;18.40;99.90
14119;DHT22;7138;49.246;9.100;2022-08-01T04:16:16;18.40;99.90
14119;DHT22;7138;49.246;9.100;2022-08-01T04:18:42;18.40;99.90
14119;DHT22;7138;49.246;9.100;2022-08-01T04:21:08;18.40;99.90
14119;DHT22;7138;49.246;9.100;2022-08-01T04:23:35;18.50;99.90
14119;DHT22;7138;49.246;9.100;2022-08-01T04:26:02;18.50;99.90
14119;DHT22;7138;49.246;9.100;2022-08-01T04:28:32;18.50;99.90
14119;DHT22;7138;49.246;9.100;2022-08-01T04:31:01;18.50;99.90
14119;DHT22;7138;49.246;9.100;2022-08-01T04:33:32;18.60;99.90
14119;DHT22;7138;49.246;9.100;2022-08-01T04:36:02;18.60;99.90
14119;DHT22;7138;49.246;9.100;2022-08-01T04:38:31;18.70;99.90
14119;DHT22;7138;49.246;9.100;2022-08-01T04:40:59;18.70;99.90
14119;DHT22;7138;49.246;9.100;2022-08-01T04:43:27;18.80;99.90
14119;DHT22;7138;49.246;9.100;2022-08-01T04:45:55;18.90;99.90
14119;DHT22;7138;49.246;9.100;2022-08-01T04:48:23;18.90;99.90
14119;DHT22;7138;49.246;9.100;2022-08-01T04:50:51;19.10;99.90
14119;DHT22;7138;49.246;9.100;2022-08-01T04:53:19;19.20;99.90
14119;DHT22;7138;49.246;9.100;2022-08-01T04:55:47;19.40;99.90
14119;DHT22;7138;49.246;9.100;2022-08-01T04:58:14;19.60;99.90
14119;DHT22;7138;49.246;9.100;2022-08-01T05:00:41;19.90;99.90
14119;DHT22;7138;49.246;9.100;2022-08-01T05:03:08;20.00;99.90
14119;DHT22;7138;49.246;9.100;2022-08-01T05:05:34;20.00;99.90
14119;DHT22;7138;49.246;9.100;2022-08-01T05:08:00;20.30;99.90
14119;DHT22;7138;49.246;9.100;2022-08-01T05:10:26;20.80;99.90
14119;DHT22;7138;49.246;9.100;2022-08-01T05:12:52;21.60;99.90
14119;DHT22;7138;49.246;9.100;2022-08-01T05:15:19;22.40;99.90
14119;DHT22;7138;49.246;9.100;2022-08-01T05:17:45;22.80;99.90
14119;DHT22;7138;49.246;9.100;2022-08-01T05:20:13;22.90;99.90
14119;DHT22;7138;49.246;9.100;2022-08-01T05:22:39;23.30;99.90
14119;DHT22;7138;49.246;9.100;2022-08-01T05:25:06;23.80;99.90
14119;DHT22;7138;49.246;9.100;2022-08-01T05:27:32;24.50;99.90
14119;DHT22;7138;49.246;9.100;2022-08-01T05:30:04;24.80;99.90
14119;DHT22;7138;49.246;9.100;2022-08-01T05:32:31;25.50;99.90
14119;DHT22;7138;49.246;9.100;2022-08-01T05:34:57;25.70;99.90
14119;DHT22;7138;49.246;9.100;2022-08-01T05:37:24;26.10;99.90
14119;DHT22;7138;49.246;9.100;2022-08-01T05:39:50;26.40;99.90
14119;DHT22;7138;49.246;9.100;2022-08-01T05:42:16;26.20;99.90
14119;DHT22;7138;49.246;9.100;2022-08-01T05:44:42;26.40;99.90
14119;DHT22;7138;49.246;9.100;2022-08-01T05:47:08;26.70;99.90
14119;DHT22;7138;49.246;9.100;2022-08-01T05:49:34;26.90;99.90
14119;DHT22;7138;49.246;9.100;2022-08-01T05:51:59;27.30;99.90
14119;DHT22;7138;49.246;9.100;2022-08-01T05:54:28;27.40;99.90
14119;DHT22;7138;49.246;9.100;2022-08-01T05:56:54;27.50;99.90
14119;DHT22;7138;49.246;9.100;2022-08-01T05:59:24;27.80;99.90
14119;DHT22;7138;49.246;9.100;2022-08-01T06:01:50;27.80;99.90
14119;DHT22;7138;49.246;9.100;2022-08-01T06:04:16;27.90;99.90
14119;DHT22;7138;49.246;9.100;2022-08-01T06:06:42;28.20;99.90
14119;DHT22;7138;49.246;9.100;2022-08-01T06:09:08;28.10;99.90
14119;DHT22;7138;49.246;9.100;2022-08-01T06:11:35;27.60;99.90
14119;DHT22;7138;49.246;9.100;2022-08-01T06:14:01;27.10;99.90
14119;DHT22;7138;49.246;9.100;2022-08-01T06:16:26;27.40;99.90
14119;DHT22;7138;49.246;9.100;2022-08-01T06:18:52;27.50;99.90
14119;DHT22;7138;49.246;9.100;2022-08-01T06:21:18;27.50;99.90
14119;DHT22;7138;49.246;9.100;2022-08-01T06:23:44;27.50;99.90
14119;DHT22;7138;49.246;9.100;2022-08-01T06:26:10;27.90;99.90
14119;DHT22;7138;49.246;9.100;2022-08-01T06:28:38;28.10;99.90
14119;DHT22;7138;49.246;9.100;2022-08-01T06:31:04;28.00;99.90
14119;DHT22;7138;49.246;9.100;2022-08-01T06:33:30;28.40;99.90
14119;DHT22;7138;49.246;9.100;2022-08-01T06:35:56;28.80;99.90
14119;DHT22;7138;49.246;9.100;2022-08-01T06:38:22;29.00;99.90
14119;DHT22;7138;49.246;9.100;2022-08-01T06:40:49;28.90;99.90
14119;DHT22;7138;49.246;9.100;2022-08-01T06:43:15;29.00;99.90
14119;DHT22;7138;49.246;9.100;2022-08-01T06:45:43;29.10;99.90
14119;DHT22;7138;49.246;9.100;2022-08-01T06:48:08;29.00;99.90
14119;DHT22;7138;49.246;9.100;2022-08-01T06:50:34;29.00;99.90
14119;DHT22;7138;49.246;9.100;2022-08-01T06:53:02;28.70;99.90
14119;DHT22;7138;49.246;9.100;2022-08-01T06:55:28;28.30;99.90
14119;DHT22;7138;49.246;9.100;2022-08-01T06:57:53;27.90;99.90
14119;DHT22;7138;49.246;9.100;2022-08-01T07:00:20;27.70;99.90
14119;DHT22;7138;49.246;9.100;2022-08-01T07:02:49;27.30;99.90
14119;DHT22;7138;49.246;9.100;2022-08-01T07:05:15;26.40;99.90
14119;DHT22;7138;49.246;9.100;2022-08-01T07:07:41;25.80;99.90
14119;DHT22;7138;49.246;9.100;2022-08-01T07:10:07;25.60;99.90
14119;DHT22;7138;49.246;9.100;2022-08-01T07:12:34;25.20;99.90
14119;DHT22;7138;49.246;9.100;2022-08-01T07:15:02;25.10;99.90
14119;DHT22;7138;49.246;9.100;2022-08-01T07:17:28;25.10;99.90
14119;DHT22;7138;49.246;9.100;2022-08-01T07:19:55;24.60;99.90
14119;DHT22;7138;49.246;9.100;2022-08-01T07:22:21;24.50;99.90
14119;DHT22;7138;49.246;9.100;2022-08-01T07:24:47;24.50;99.90
14119;DHT22;7138;49.246;9.100;2022-08-01T07:27:13;24.80;99.90
14119;DHT22;7138;49.246;9.100;2022-08-01T07:29:38;25.90;99.90
14119;DHT22;7138;49.246;9.100;2022-08-01T07:32:05;26.20;99.90
14119;DHT22;7138;49.246;9.100;2022-08-01T07:34:31;25.80;99.90
14119;DHT22;7138;49.246;9.100;2022-08-01T07:36:58;25.40;99.90
14119;DHT22;7138;49.246;9.100;2022-08-01T07:39:24;25.20;99.90
14119;DHT22;7138;49.246;9.100;2022-08-01T07:41:50;24.90;99.90
14119;DHT22;7138;49.246;9.100;2022-08-01T07:44:16;24.90;99.90
14119;DHT22;7138;49.246;9.100;2022-08-01T07:46:42;25.20;99.90
14119;DHT22;7138;49.246;9.100;2022-08-01T07:49:07;25.10;99.90
14119;DHT22;7138;49.246;9.100;2022-08-01T07:51:33;24.80;99.90
14119;DHT22;7138;49.246;9.100;2022-08-01T07:54:00;24.90;99.90
14119;DHT22;7138;49.246;9.100;2022-08-01T07:56:26;25.10;99.90
14119;DHT22;7138;49.246;9.100;2022-08-01T07:58:52;24.80;99.90
14119;DHT22;7138;49.246;9.100;2022-08-01T08:01:18;24.80;99.90
14119;DHT22;7138;49.246;9.100;2022-08-01T08:03:46;25.30;99.90
14119;DHT22;7138;49.246;9.100;2022-08-01T08:06:11;25.30;99.90
14119;DHT22;7138;49.246;9.100;2022-08-01T08:08:37;25.70;99.90
14119;DHT22;7138;49.246;9.100;2022-08-01T08:11:05;25.90;99.90
14119;DHT22;7138;49.246;9.100;2022-08-01T08:13:31;26.20;99.90
14119;DHT22;7138;49.246;9.100;2022-08-01T08:15:57;26.70;99.90
14119;DHT22;7138;49.246;9.100;2022-08-01T08:18:25;27.00;99.90
14119;DHT22;7138;49.246;9.100;2022-08-01T08:20:51;26.70;99.90
14119;DHT22;7138;49.246;9.100;2022-08-01T08:23:16;26.80;99.90
14119;DHT22;7138;49.246;9.100;2022-08-01T08:26:01;27.20;99.90
14119;DHT22;7138;49.246;9.100;2022-08-01T08:28:28;27.40;99.90
14119;DHT22;7138;49.246;9.100;2022-08-01T08:30:54;27.30;99.90
14119;DHT22;7138;49.246;9.100;2022-08-01T08:33:20;27.20;99.90
14119;DHT22;7138;49.246;9.100;2022-08-01T08:35:46;27.30;99.90
14119;DHT22;7138;49.246;9.100;2022-08-01T08:38:12;27.20;99.90
14119;DHT22;7138;49.246;9.100;2022-08-01T08:40:38;26.50;99.90
14119;DHT22;7138;49.246;9.100;2022-08-01T08:43:05;26.20;99.90
14119;DHT22;7138;49.246;9.100;2022-08-01T08:45:32;26.40;99.90
14119;DHT22;7138;49.246;9.100;2022-08-01T08:47:58;26.70;99.90
14119;DHT22;7138;49.246;9.100;2022-08-01T08:50:26;27.60;99.90
14119;DHT22;7138;49.246;9.100;2022-08-01T08:52:53;27.90;99.90
14119;DHT22;7138;49.246;9.100;2022-08-01T08:55:20;27.90;99.90
14119;DHT22;7138;49.246;9.100;2022-08-01T08:57:48;27.60;99.90
14119;DHT22;7138;49.246;9.100;2022-08-01T09:00:16;27.30;99.90
14119;DHT22;7138;49.246;9.100;2022-08-01T09:02:44;27.10;99.90
14119;DHT22;7138;49.246;9.100;2022-08-01T09:05:12;27.20;99.90
14119;DHT22;7138;49.246;9.100;2022-08-01T09:07:39;27.90;99.90
14119;DHT22;7138;49.246;9.100;2022-08-01T09:10:06;28.30;99.90
14119;DHT22;7138;49.246;9.100;2022-08-01T09:12:35;28.70;99.90
14119;DHT22;7138;49.246;9.100;2022-08-01T09:15:02;28.80;99.90
14119;DHT22;7138;49.246;9.100;2022-08-01T09:17:28;28.80;99.90
14119;DHT22;7138;49.246;9.100;2022-08-01T09:20:07;28.30;99.90
14119;DHT22;7138;49.246;9.100;2022-08-01T09:22:47;28.30;99.90
14119;DHT22;7138;49.246;9.100;2022-08-01T09:25:13;28.10;99.90
14119;DHT22;7138;49.246;9.100;2022-08-01T09:27:39;28.20;99.90
14119;DHT22;7138;49.246;9.100;2022-08-01T09:30:10;28.70;99.90
14119;DHT22;7138;49.246;9.100;2022-08-01T09:32:53;27.80;99.90
14119;DHT22;7138;49.246;9.100;2022-08-01T09:35:26;26.80;99.90
14119;DHT22;7138;49.246;9.100;2022-08-01T09:38:12;26.60;99.90
14119;DHT22;7138;49.246;9.100;2022-08-01T09:40:45;26.90;99.90
14119;DHT22;7138;49.246;9.100;2022-08-01T09:43:16;27.00;99.90
14119;DHT22;7138;49.246;9.100;2022-08-01T09:45:42;26.80;99.90
14119;DHT22;7138;49.246;9.100;2022-08-01T09:48:09;26.60;99.90
14119;DHT22;7138;49.246;9.100;2022-08-01T09:50:40;27.00;99.90
14119;DHT22;7138;49.246;9.100;2022-08-01T09:53:07;27.50;99.90
14119;DHT22;7138;49.246;9.100;2022-08-01T09:55:33;27.40;99.90
14119;DHT22;7138;49.246;9.100;2022-08-01T09:57:59;28.20;99.90
14119;DHT22;7138;49.246;9.100;2022-08-01T10:00:27;27.80;99.90
14119;DHT22;7138;49.246;9.100;2022-08-01T10:02:53;28.30;99.90
14119;DHT22;7138;49.246;9.100;2022-08-01T10:05:30;28.60;99.90
14119;DHT22;7138;49.246;9.100;2022-08-01T10:07:59;29.00;99.90
14119;DHT22;7138;49.246;9.100;2022-08-01T10:10:27;28.60;99.90
14119;DHT22;7138;49.246;9.100;2022-08-01T10:12:55;29.00;99.90
14119;DHT22;7138;49.246;9.100;2022-08-01T10:15:23;29.50;99.00
14119;DHT22;7138;49.246;9.100;2022-08-01T10:17:53;29.20;99.90
14119;DHT22;7138;49.246;9.100;2022-08-01T10:20:24;29.10;99.90
14119;DHT22;7138;49.246;9.100;2022-08-01T10:22:53;29.00;99.60
14119;DHT22;7138;49.246;9.100;2022-08-01T10:25:22;29.00;99.70
14119;DHT22;7138;49.246;9.100;2022-08-01T10:27:52;29.10;99.70
14119;DHT22;7138;49.246;9.100;2022-08-01T10:30:23;29.80;99.50
14119;DHT22;7138;49.246;9.100;2022-08-01T10:32:49;29.70;97.70
14119;DHT22;7138;49.246;9.100;2022-08-01T10:35:17;29.50;98.20
14119;DHT22;7138;49.246;9.100;2022-08-01T10:37:45;29.30;99.90
14119;DHT22;7138;49.246;9.100;2022-08-01T10:40:13;28.30;99.00
14119;DHT22;7138;49.246;9.100;2022-08-01T10:42:42;28.00;99.90
14119;DHT22;7138;49.246;9.100;2022-08-01T10:45:12;28.70;99.60
14119;DHT22;7138;49.246;9.100;2022-08-01T10:47:44;28.90;99.10
14119;DHT22;7138;49.246;9.100;2022-08-01T10:50:19;29.00;98.50
14119;DHT22;7138;49.246;9.100;2022-08-01T10:53:17;28.40;99.00
14119;DHT22;7138;49.246;9.100;2022-08-01T10:55:50;28.00;99.40
14119;DHT22;7138;49.246;9.100;2022-08-01T10:58:26;27.70;99.60
14119;DHT22;7138;49.246;9.100;2022-08-01T11:01:17;27.80;99.60
14119;DHT22;7138;49.246;9.100;2022-08-01T11:03:55;27.80;99.80
14119;DHT22;7138;49.246;9.100;2022-08-01T11:06:24;27.60;99.90
14119;DHT22;7138;49.246;9.100;2022-08-01T11:08:54;27.50;99.90
14119;DHT22;7138;49.246;9.100;2022-08-01T11:11:21;27.60;99.90
14119;DHT22;7138;49.246;9.100;2022-08-01T11:14:05;27.90;99.90
14119;DHT22;7138;49.246;9.100;2022-08-01T11:16:39;28.20;99.70
14119;DHT22;7138;49.246;9.100;2022-08-01T11:19:08;28.40;99.90
14119;DHT22;7138;49.246;9.100;2022-08-01T11:21:59;28.00;99.90
14119;DHT22;7138;49.246;9.100;2022-08-01T11:24:54;28.20;99.20
14119;DHT22;7138;49.246;9.100;2022-08-01T11:27:24;28.10;99.90
14119;DHT22;7138;49.246;9.100;2022-08-01T11:30:23;28.10;99.30
14119;DHT22;7138;49.246;9.100;2022-08-01T11:32:52;28.20;99.20
14119;DHT22;7138;49.246;9.100;2022-08-01T11:35:20;27.90;99.90
14119;DHT22;7138;49.246;9.100;2022-08-01T11:37:49;28.10;99.90
14119;DHT22;7138;49.246;9.100;2022-08-01T11:40:21;28.40;99.80
14119;DHT22;7138;49.246;9.100;2022-08-01T11:42:51;28.30;99.90
14119;DHT22;7138;49.246;9.100;2022-08-01T11:45:47;28.30;99.90
14119;DHT22;7138;49.246;9.100;2022-08-01T11:48:18;28.30;99.90
14119;DHT22;7138;49.246;9.100;2022-08-01T11:50:45;28.10;99.90
14119;DHT22;7138;49.246;9.100;2022-08-01T11:53:11;27.90;99.30
14119;DHT22;7138;49.246;9.100;2022-08-01T11:55:45;27.80;99.30
14119;DHT22;7138;49.246;9.100;2022-08-01T11:58:12;27.70;99.90
14119;DHT22;7138;49.246;9.100;2022-08-01T12:00:40;27.50;99.70
14119;DHT22;7138;49.246;9.100;2022-08-01T12:03:07;27.50;99.80
14119;DHT22;7138;49.246;9.100;2022-08-01T12:05:36;27.50;99.60
14119;DHT22;7138;49.246;9.100;2022-08-01T12:08:03;27.80;99.90
14119;DHT22;7138;49.246;9.100;2022-08-01T12:10:34;27.90;99.30
14119;DHT22;7138;49.246;9.100;2022-08-01T12:13:05;27.90;99.60
14119;DHT22;7138;49.246;9.100;2022-08-01T12:15:37;27.80;99.60
14119;DHT22;7138;49.246;9.100;2022-08-01T12:18:05;27.80;99.90
14119;DHT22;7138;49.246;9.100;2022-08-01T12:20:34;28.10;99.90
14119;DHT22;7138;49.246;9.100;2022-08-01T12:23:03;28.20;99.70
14119;DHT22;7138;49.246;9.100;2022-08-01T12:25:31;28.70;99.20
14119;DHT22;7138;49.246;9.100;2022-08-01T12:28:00;28.80;99.80
14119;DHT22;7138;49.246;9.100;2022-08-01T12:30:27;29.10;99.00
14119;DHT22;7138;49.246;9.100;2022-08-01T12:32:56;29.50;98.00
14119;DHT22;7138;49.246;9.100;2022-08-01T12:35:26;29.10;98.10
14119;DHT22;7138;49.246;9.100;2022-08-01T12:37:56;28.80;97.90
14119;DHT22;7138;49.246;9.100;2022-08-01T12:40:25;28.30;98.80
14119;DHT22;7138;49.246;9.100;2022-08-01T12:42:55;29.20;98.90
14119;DHT22;7138;49.246;9.100;2022-08-01T12:45:25;30.10;97.30
14119;DHT22;7138;49.246;9.100;2022-08-01T12:47:54;30.50;97.90
14119;DHT22;7138;49.246;9.100;2022-08-01T12:50:25;31.00;98.70
14119;DHT22;7138;49.246;9.100;2022-08-01T12:52:53;31.30;96.20
14119;DHT22;7138;49.246;9.100;2022-08-01T12:55:20;31.10;95.10
14119;DHT22;7138;49.246;9.100;2022-08-01T12:57:49;30.80;95.40
14119;DHT22;7138;49.246;9.100;2022-08-01T13:00:29;30.90;96.00
14119;DHT22;7138;49.246;9.100;2022-08-01T13:03:02;31.50;94.90
14119;DHT22;7138;49.246;9.100;2022-08-01T13:05:40;31.30;94.40
14119;DHT22;7138;49.246;9.100;2022-08-01T13:08:10;30.40;95.40
14119;DHT22;7138;49.246;9.100;2022-08-01T13:10:37;30.70;95.40
14119;DHT22;7138;49.246;9.100;2022-08-01T13:13:03;30.70;95.00
14119;DHT22;7138;49.246;9.100;2022-08-01T13:15:32;30.80;94.20
14119;DHT22;7138;49.246;9.100;2022-08-01T13:18:01;30.70;94.80
14119;DHT22;7138;49.246;9.100;2022-08-01T13:20:48;30.50;94.60
14119;DHT22;7138;49.246;9.100;2022-08-01T13:23:15;30.10;94.70
14119;DHT22;7138;49.246;9.100;2022-08-01T13:25:50;30.00;95.00
14119;DHT22;7138;49.246;9.100;2022-08-01T13:28:19;29.30;95.80
14119;DHT22;7138;49.246;9.100;2022-08-01T13:30:54;29.10;96.10
14119;DHT22;7138;49.246;9.100;2022-08-01T13:33:23;29.30;95.60
14119;DHT22;7138;49.246;9.100;2022-08-01T13:35:52;30.00;95.30
14119;DHT22;7138;49.246;9.100;2022-08-01T13:38:18;29.80;95.10
14119;DHT22;7138;49.246;9.100;2022-08-01T13:40:44;29.90;95.50
14119;DHT22;7138;49.246;9.100;2022-08-01T13:43:10;30.30;95.00
14119;DHT22;7138;49.246;9.100;2022-08-01T13:45:36;30.40;94.70
14119;DHT22;7138;49.246;9.100;2022-08-01T13:48:04;31.20;93.80
14119;DHT22;7138;49.246;9.100;2022-08-01T13:50:31;31.50;93.70
14119;DHT22;7138;49.246;9.100;2022-08-01T13:52:58;31.60;93.30
14119;DHT22;7138;49.246;9.100;2022-08-01T13:55:24;31.60;93.90
14119;DHT22;7138;49.246;9.100;2022-08-01T13:57:50;31.40;93.30
14119;DHT22;7138;49.246;9.100;2022-08-01T14:00:16;31.20;92.90
14119;DHT22;7138;49.246;9.100;2022-08-01T14:02:42;31.10;92.10
14119;DHT22;7138;49.246;9.100;2022-08-01T14:05:08;30.60;92.60
14119;DHT22;7138;49.246;9.100;2022-08-01T14:07:34;30.30;93.00
14119;DHT22;7138;49.246;9.100;2022-08-01T14:10:01;30.30;93.40
14119;DHT22;7138;49.246;9.100;2022-08-01T14:12:27;30.20;93.80
14119;DHT22;7138;49.246;9.100;2022-08-01T14:14:53;30.30;93.20
14119;DHT22;7138;49.246;9.100;2022-08-01T14:17:19;30.30;93.80
14119;DHT22;7138;49.246;9.100;2022-08-01T14:19:45;30.70;93.50
14119;DHT22;7138;49.246;9.100;2022-08-01T14:22:11;29.60;93.70
14119;DHT22;7138;49.246;9.100;2022-08-01T14:24:37;29.50;94.50
14119;DHT22;7138;49.246;9.100;2022-08-01T14:27:04;29.30;94.80
14119;DHT22;7138;49.246;9.100;2022-08-01T14:29:30;29.30;93.70
14119;DHT22;7138;49.246;9.100;2022-08-01T14:31:56;29.20;94.40
14119;DHT22;7138;49.246;9.100;2022-08-01T14:34:21;29.00;94.30
14119;DHT22;7138;49.246;9.100;2022-08-01T14:36:47;29.00;93.90
14119;DHT22;7138;49.246;9.100;2022-08-01T14:39:13;28.90;93.70
14119;DHT22;7138;49.246;9.100;2022-08-01T14:41:39;28.80;93.80
14119;DHT22;7138;49.246;9.100;2022-08-01T14:44:06;28.50;93.60
14119;DHT22;7138;49.246;9.100;2022-08-01T14:46:34;28.30;94.20
14119;DHT22;7138;49.246;9.100;2022-08-01T14:49:00;28.40;94.30
14119;DHT22;7138;49.246;9.100;2022-08-01T14:51:25;28.50;95.10
14119;DHT22;7138;49.246;9.100;2022-08-01T14:53:51;28.70;94.60
14119;DHT22;7138;49.246;9.100;2022-08-01T14:56:18;29.50;94.60
14119;DHT22;7138;49.246;9.100;2022-08-01T14:58:44;29.60;93.40
14119;DHT22;7138;49.246;9.100;2022-08-01T15:01:11;29.50;93.30
14119;DHT22;7138;49.246;9.100;2022-08-01T15:03:37;29.20;93.00
14119;DHT22;7138;49.246;9.100;2022-08-01T15:06:03;29.00;93.80
14119;DHT22;7138;49.246;9.100;2022-08-01T15:08:31;28.90;93.60
14119;DHT22;7138;49.246;9.100;2022-08-01T15:10:57;28.70;93.80
14119;DHT22;7138;49.246;9.100;2022-08-01T15:13:23;28.70;94.40
14119;DHT22;7138;49.246;9.100;2022-08-01T15:15:49;28.20;94.10
14119;DHT22;7138;49.246;9.100;2022-08-01T15:18:16;28.20;94.20
14119;DHT22;7138;49.246;9.100;2022-08-01T15:20:42;28.30;94.40
14119;DHT22;7138;49.246;9.100;2022-08-01T15:23:08;28.20;94.60
14119;DHT22;7138;49.246;9.100;2022-08-01T15:25:34;27.90;95.10
14119;DHT22;7138;49.246;9.100;2022-08-01T15:28:00;27.90;95.00
14119;DHT22;7138;49.246;9.100;2022-08-01T15:30:26;27.80;95.10
14119;DHT22;7138;49.246;9.100;2022-08-01T15:32:52;27.50;95.40
14119;DHT22;7138;49.246;9.100;2022-08-01T15:35:19;27.60;95.90
14119;DHT22;7138;49.246;9.100;2022-08-01T15:37:46;27.80;95.90
14119;DHT22;7138;49.246;9.100;2022-08-01T15:40:12;27.90;95.80
14119;DHT22;7138;49.246;9.100;2022-08-01T15:42:38;27.90;96.20
14119;DHT22;7138;49.246;9.100;2022-08-01T15:45:04;28.10;95.90
14119;DHT22;7138;49.246;9.100;2022-08-01T15:47:32;28.10;94.90
14119;DHT22;7138;49.246;9.100;2022-08-01T15:49:57;28.20;95.20
14119;DHT22;7138;49.246;9.100;2022-08-01T15:52:28;28.10;95.00
14119;DHT22;7138;49.246;9.100;2022-08-01T15:54:53;28.10;95.70